createdAt,value
2019-04-21T00:00:06.168Z,29.90
2019-04-21T00:02:35.809Z,30.43
2019-04-21T00:05:24.722Z,30.47
2019-04-21T00:07:54.307Z,31.13
2019-04-21T00:10:28.437Z,31.17
2019-04-21T00:12:54.753Z,31.47
2019-04-21T00:15:17.735Z,31.47
2019-04-21T00:17:39.105Z,32.10
2019-04-21T00:20:22.447Z,33.70
2019-04-21T00:22:52.104Z,29.37
2019-04-21T00:25:24.882Z,29.60
2019-04-21T00:28:01.490Z,29.27
2019-04-21T00:30:34.213Z,28.90
2019-04-21T00:32:54.508Z,32.23
2019-04-21T00:35:18.959Z,29.90
2019-04-21T00:38:00.365Z,29.20
2019-04-21T00:40:35.491Z,30.67
2019-04-21T00:43:04.620Z,30.47
2019-04-21T00:45:31.457Z,29.73
2019-04-21T00:48:10.095Z,31.07
2019-04-21T00:50:50.970Z,34.73
2019-04-21T00:53:29.998Z,29.80
2019-04-21T00:55:59.657Z,30.70
2019-04-21T00:58:30.178Z,29.80
2019-04-21T01:00:58.137Z,29.90
2019-04-21T01:03:26.097Z,33.10
2019-04-21T01:08:26.773Z,28.97
2019-04-21T01:10:51.536Z,34.13
2019-04-21T01:13:33.347Z,32.10
2019-04-21T01:16:00.783Z,31.83
2019-04-21T01:18:33.178Z,32.13
2019-04-21T01:20:39.804Z,31.17
2019-04-21T01:23:08.792Z,29.43
2019-04-21T01:25:45.963Z,32.70
2019-04-21T01:28:27.147Z,32.17
2019-04-21T01:30:59.469Z,32.30
2019-04-21T01:33:33.505Z,32.40
2019-04-21T01:35:58.366Z,33.37
2019-04-21T01:38:34.395Z,34.77
2019-04-21T01:41:07.101Z,33.07
2019-04-21T01:43:33.713Z,32.97
2019-04-21T01:46:03.952Z,30.23
2019-04-21T01:48:33.311Z,28.83
2019-04-21T01:51:01.553Z,31.20
2019-04-21T01:53:59.552Z,30.90
2019-04-21T01:56:46.673Z,31.30
2019-04-21T01:59:03.456Z,30.50
2019-04-21T02:01:46.088Z,33.70
2019-04-21T02:04:24.021Z,32.03
2019-04-21T02:06:50.500Z,31.73
2019-04-21T02:09:15.227Z,28.77
2019-04-21T02:11:52.041Z,30.87
2019-04-21T02:14:22.840Z,32.87
2019-04-21T02:16:54.050Z,31.87
2019-04-21T02:19:18.369Z,30.10
2019-04-21T02:21:43.534Z,29.90
2019-04-21T02:24:31.186Z,32.97
2019-04-21T02:26:55.921Z,31.97
2019-04-21T02:29:30.379Z,30.63
2019-04-21T02:34:44.704Z,32.83
2019-04-21T02:37:36.662Z,29.93
2019-04-21T02:39:43.619Z,30.60
2019-04-21T02:44:43.355Z,31.60
2019-04-21T02:47:06.505Z,31.70
2019-04-21T02:49:56.975Z,31.93
2019-04-21T02:55:01.694Z,30.90
2019-04-21T02:57:18.616Z,31.73
2019-04-21T03:00:00.010Z,30.20
2019-04-21T03:05:45.381Z,31.07
2019-04-21T03:08:15.108Z,38.33
2019-04-21T03:13:13.825Z,30.83
2019-04-21T03:15:55.596Z,31.10
2019-04-21T03:26:03.427Z,31.97
2019-04-21T03:28:14.011Z,28.40
2019-04-21T03:31:06.706Z,30.70
2019-04-21T03:38:22.299Z,27.97
2019-04-21T03:40:39.964Z,30.70
2019-04-21T03:43:21.374Z,30.10
2019-04-21T03:46:01.283Z,32.37
2019-04-21T03:48:24.237Z,30.87
2019-04-21T03:51:07.755Z,30.23
2019-04-21T03:53:37.776Z,30.83
2019-04-21T03:56:13.222Z,29.30
2019-04-21T03:58:44.930Z,29.40
2019-04-21T04:04:14.948Z,32.50
2019-04-21T04:06:43.078Z,30.00
2019-04-21T04:09:37.830Z,28.57
2019-04-21T04:14:26.940Z,30.93
2019-04-21T04:16:57.262Z,31.17
2019-04-21T04:19:30.136Z,29.70
2019-04-21T04:21:57.433Z,32.47
2019-04-21T04:24:39.552Z,31.60
2019-04-21T04:26:57.080Z,30.00
2019-04-21T04:32:05.809Z,29.70
2019-04-21T04:34:35.966Z,29.77
2019-04-21T04:39:48.859Z,35.80
2019-04-21T04:42:31.293Z,31.50
2019-04-21T04:49:55.061Z,32.00
2019-04-21T04:52:32.760Z,33.00
2019-04-21T05:00:15.490Z,29.30
2019-04-21T05:05:07.021Z,31.17
2019-04-21T05:07:33.719Z,31.30
2019-04-21T05:09:59.519Z,30.90
2019-04-21T05:12:30.985Z,30.93
2019-04-21T05:14:59.345Z,35.50
2019-04-21T05:17:38.194Z,29.37
2019-04-21T05:20:10.345Z,32.53
2019-04-21T05:22:27.998Z,31.07
2019-04-21T05:24:55.401Z,30.70
2019-04-21T05:27:47.041Z,32.37
2019-04-21T05:30:45.453Z,30.70
2019-04-21T05:33:44.810Z,28.50
2019-04-21T05:36:48.932Z,33.33
2019-04-21T05:39:37.545Z,34.20
2019-04-21T05:42:01.897Z,32.50
2019-04-21T05:44:52.777Z,31.23
2019-04-21T05:47:37.943Z,34.07
2019-04-21T05:49:56.017Z,32.20
2019-04-21T05:52:22.929Z,32.10
2019-04-21T05:55:01.215Z,33.37
2019-04-21T05:57:32.258Z,33.10
2019-04-21T06:00:06.648Z,33.17
2019-04-21T06:02:28.896Z,46.57
2019-04-21T06:05:14.105Z,35.10
2019-04-21T06:07:48.995Z,40.30
2019-04-21T06:12:38.204Z,34.37
2019-04-21T06:15:11.813Z,33.83
2019-04-21T06:17:46.009Z,36.23
2019-04-21T06:20:10.350Z,35.00
2019-04-21T06:22:36.115Z,33.30
2019-04-21T06:25:33.942Z,33.10
2019-04-21T06:27:38.985Z,32.53
2019-04-21T06:30:04.176Z,32.70
2019-04-21T06:36:21.621Z,32.73
2019-04-21T06:38:54.292Z,31.90
2019-04-21T06:41:13.740Z,33.63
2019-04-21T06:43:48.194Z,36.60
2019-04-21T06:46:20.062Z,32.30
2019-04-21T06:48:44.052Z,30.70
2019-04-21T06:51:17.979Z,32.07
2019-04-21T06:53:57.152Z,34.03
2019-04-21T06:56:15.644Z,32.93
2019-04-21T06:58:42.970Z,32.30
2019-04-21T07:01:16.105Z,31.10
2019-04-21T07:03:48.756Z,31.30
2019-04-21T07:06:40.381Z,32.30
2019-04-21T07:08:53.255Z,30.77
2019-04-21T07:11:21.141Z,33.97
2019-04-21T07:13:53.453Z,32.67
2019-04-21T07:16:25.428Z,33.83
2019-04-21T07:19:04.081Z,30.73
2019-04-21T07:21:31.118Z,32.47
2019-04-21T07:24:01.491Z,33.63
2019-04-21T07:26:32.709Z,30.60
2019-04-21T07:29:12.263Z,30.50
2019-04-21T07:31:40.426Z,35.00
2019-04-21T07:34:10.578Z,31.47
2019-04-21T07:39:01.915Z,31.17
2019-04-21T07:41:31.138Z,29.20
2019-04-21T07:44:00.251Z,30.50
2019-04-21T07:46:28.958Z,28.70
2019-04-21T07:49:15.806Z,29.90
2019-04-21T07:51:56.718Z,31.40
2019-04-21T07:54:33.816Z,28.07
2019-04-21T07:56:45.531Z,31.50
2019-04-21T07:59:41.211Z,31.37
2019-04-21T08:02:02.530Z,31.20
2019-04-21T08:04:55.879Z,28.17
2019-04-21T08:07:01.262Z,29.90
2019-04-21T08:09:35.272Z,29.20
2019-04-21T08:11:57.421Z,29.30
2019-04-21T08:14:55.946Z,29.80
2019-04-21T08:17:02.901Z,30.57
2019-04-21T08:19:31.156Z,30.70
2019-04-21T08:24:36.363Z,30.17
2019-04-21T08:27:13.285Z,31.50
2019-04-21T08:29:44.800Z,32.03
2019-04-21T08:32:10.555Z,29.50
2019-04-21T08:34:44.438Z,30.60
2019-04-21T08:37:15.062Z,29.20
2019-04-21T08:39:49.690Z,28.63
2019-04-21T08:42:10.314Z,28.37
2019-04-21T08:44:46.770Z,28.73
2019-04-21T08:47:15.497Z,29.10
2019-04-21T08:49:42.839Z,28.13
2019-04-21T08:52:21.619Z,28.70
2019-04-21T08:54:49.653Z,29.87
2019-04-21T08:57:41.699Z,27.77
2019-04-21T09:00:20.089Z,28.93
2019-04-21T09:03:06.490Z,28.97
2019-04-21T09:05:35.674Z,28.30
2019-04-21T09:08:16.505Z,28.40
2019-04-21T09:10:39.996Z,29.13
2019-04-21T09:13:12.991Z,28.83
2019-04-21T09:15:35.999Z,28.70
2019-04-21T09:18:11.973Z,28.40
2019-04-21T09:20:50.578Z,27.93
2019-04-21T09:23:17.736Z,27.80
2019-04-21T09:25:46.550Z,30.17
2019-04-21T09:28:11.202Z,28.60
2019-04-21T09:30:33.872Z,27.93
2019-04-21T09:32:59.814Z,27.60
2019-04-21T09:35:29.175Z,28.57
2019-04-21T09:38:07.820Z,28.10
2019-04-21T09:40:35.996Z,27.30
2019-04-21T09:43:04.787Z,27.80
2019-04-21T09:45:30.713Z,30.13
2019-04-21T09:48:06.386Z,28.30
2019-04-21T09:50:31.799Z,27.50
2019-04-21T09:53:13.005Z,27.57
2019-04-21T09:55:42.978Z,28.10
2019-04-21T09:58:13.508Z,27.73
2019-04-21T10:00:46.160Z,29.07
2019-04-21T10:03:08.746Z,27.20
2019-04-21T10:05:36.127Z,27.70
2019-04-21T10:08:05.865Z,26.47
2019-04-21T10:10:36.331Z,28.30
2019-04-21T10:13:05.585Z,26.40
2019-04-21T10:15:35.547Z,27.60
2019-04-21T10:18:10.698Z,27.40
2019-04-21T10:20:40.639Z,26.40
2019-04-21T10:23:09.875Z,26.37
2019-04-21T10:25:38.991Z,26.23
2019-04-21T10:28:08.136Z,26.67
2019-04-21T10:30:38.436Z,26.53
2019-04-21T10:33:08.332Z,28.37
2019-04-21T10:35:37.677Z,26.63
2019-04-21T10:38:19.233Z,27.27
2019-04-21T10:40:39.273Z,26.30
2019-04-21T10:43:11.624Z,26.97
2019-04-21T10:45:39.238Z,26.80
2019-04-21T10:48:08.443Z,27.13
2019-04-21T10:50:38.867Z,27.83
2019-04-21T10:53:13.356Z,26.80
2019-04-21T10:55:56.625Z,25.77
2019-04-21T10:58:29.183Z,26.70
2019-04-21T11:01:10.570Z,27.40
2019-04-21T11:03:58.816Z,27.40
2019-04-21T11:06:28.724Z,26.20
2019-04-21T11:09:01.098Z,27.63
2019-04-21T11:11:30.083Z,26.60
2019-04-21T11:13:59.308Z,26.30
2019-04-21T11:16:29.047Z,27.40
2019-04-21T11:18:58.345Z,26.43
2019-04-21T11:21:27.288Z,26.20
2019-04-21T11:23:56.573Z,26.50
2019-04-21T11:26:25.573Z,28.17
2019-04-21T11:28:54.985Z,26.70
2019-04-21T11:31:25.034Z,26.23
2019-04-21T11:33:55.376Z,26.00
2019-04-21T11:36:24.999Z,27.00
2019-04-21T11:39:27.287Z,26.10
2019-04-21T12:53:23.407Z,26.80
2019-04-21T12:55:53.811Z,27.47
2019-04-21T12:58:23.597Z,28.40
2019-04-21T13:00:52.852Z,28.83
2019-04-21T13:03:23.482Z,28.40
2019-04-21T13:05:53.704Z,26.90
2019-04-21T13:08:25.020Z,27.57
2019-04-21T13:10:54.148Z,27.93
2019-04-21T13:13:23.963Z,26.77
2019-04-21T13:15:53.527Z,28.93
2019-04-21T13:18:22.689Z,27.50
2019-04-21T13:20:51.986Z,29.73
2019-04-21T13:23:21.102Z,26.53
2019-04-21T13:25:50.064Z,26.07
2019-04-21T13:28:19.192Z,27.17
2019-04-21T13:30:48.599Z,26.17
2019-04-21T13:33:18.883Z,26.20
2019-04-21T13:35:48.838Z,28.03
2019-04-21T13:38:28.666Z,28.00
2019-04-21T13:41:17.786Z,27.20
2019-04-21T13:43:36.987Z,26.40
2019-04-21T13:46:06.274Z,26.63
2019-04-21T13:48:36.759Z,27.27
2019-04-21T13:51:07.134Z,27.90
2019-04-21T13:53:37.842Z,26.50
2019-04-21T13:56:08.782Z,26.67
2019-04-21T13:58:38.183Z,26.20
2019-04-21T14:01:07.738Z,28.40
2019-04-21T14:03:37.673Z,27.70
2019-04-21T14:06:06.962Z,26.27
2019-04-21T14:08:37.243Z,26.37
2019-04-21T14:11:09.293Z,28.30
2019-04-21T14:13:38.620Z,28.97
2019-04-21T14:16:08.151Z,26.60
2019-04-21T14:18:38.591Z,26.17
2019-04-21T14:21:09.115Z,27.37
2019-04-21T14:23:43.840Z,26.27
2019-04-21T14:26:09.065Z,27.30
2019-04-21T14:28:38.927Z,26.87
2019-04-21T14:31:08.358Z,28.90
2019-04-21T14:33:38.241Z,27.67
2019-04-21T14:36:08.499Z,27.83
2019-04-21T14:38:38.626Z,27.00
2019-04-21T14:41:08.295Z,27.43
2019-04-21T14:43:38.516Z,27.83
2019-04-21T14:46:15.735Z,27.30
2019-04-21T14:49:03.599Z,26.83
2019-04-21T14:51:39.176Z,26.90
2019-04-21T14:54:26.853Z,26.80
2019-04-21T14:56:57.594Z,26.77
2019-04-21T14:59:27.012Z,27.20
2019-04-21T15:01:56.253Z,26.37
2019-04-21T15:04:25.778Z,27.40
2019-04-21T15:06:55.094Z,26.60
2019-04-21T15:09:25.270Z,26.47
2019-04-21T15:11:54.430Z,26.83
2019-04-21T15:14:24.101Z,26.10
2019-04-21T15:16:54.559Z,27.20
2019-04-21T15:19:24.608Z,27.10
2019-04-21T15:21:54.276Z,29.50
2019-04-21T15:24:24.342Z,26.90
2019-04-21T15:26:54.651Z,27.00
2019-04-21T15:29:24.701Z,27.50
2019-04-21T15:31:54.626Z,26.93
2019-04-21T15:34:26.007Z,26.50
2019-04-21T15:36:55.709Z,27.40
2019-04-21T15:39:25.749Z,26.90
2019-04-21T15:41:54.994Z,27.47
2019-04-21T15:44:24.825Z,26.40
2019-04-21T15:46:54.028Z,26.53
2019-04-21T15:49:23.170Z,26.83
2019-04-21T15:51:53.742Z,27.20
2019-04-21T15:54:24.690Z,26.60
2019-04-21T15:57:00.772Z,26.97
2019-04-21T15:59:46.558Z,26.60
2019-04-21T16:02:34.714Z,26.43
2019-04-21T16:05:04.740Z,27.27
2019-04-21T16:07:34.045Z,26.70
2019-04-21T16:10:06.473Z,27.73
2019-04-21T16:12:34.009Z,27.80
2019-04-21T16:15:03.115Z,27.47
2019-04-21T16:17:32.984Z,27.17
2019-04-21T16:20:03.978Z,26.60
2019-04-21T16:22:32.992Z,27.30
2019-04-21T16:25:03.320Z,26.90
2019-04-21T16:27:33.226Z,26.77
2019-04-21T16:30:03.880Z,26.40
2019-04-21T16:32:34.234Z,26.40
2019-04-21T16:35:08.405Z,27.10
2019-04-21T16:37:35.341Z,26.40
2019-04-21T16:40:07.304Z,26.23
2019-04-21T16:42:36.794Z,27.30
2019-04-21T16:45:07.280Z,27.47
2019-04-21T16:47:37.905Z,26.30
2019-04-21T16:50:07.817Z,25.97
2019-04-21T16:52:42.061Z,27.93
2019-04-21T16:55:21.250Z,29.87
2019-04-21T16:58:04.497Z,27.33
2019-04-21T17:00:35.064Z,25.80
2019-04-21T17:02:58.703Z,26.90
2019-04-21T17:05:28.008Z,26.80
2019-04-21T17:07:57.809Z,27.97
2019-04-21T17:10:28.637Z,28.87
2019-04-21T17:12:57.857Z,26.80
2019-04-21T17:15:42.122Z,29.40
2019-04-21T17:18:13.329Z,28.00
2019-04-21T17:20:38.148Z,27.10
2019-04-21T17:22:59.736Z,28.20
2019-04-21T17:25:29.743Z,26.00
2019-04-21T17:27:58.958Z,27.63
2019-04-21T17:30:28.447Z,26.37
2019-04-21T17:32:57.685Z,27.87
2019-04-21T17:35:27.148Z,26.70
2019-04-21T17:37:56.362Z,26.83
2019-04-21T17:40:26.332Z,26.90
2019-04-21T17:43:02.035Z,26.37
2019-04-21T17:45:27.013Z,29.83
2019-04-21T17:48:03.182Z,25.97
2019-04-21T17:50:57.540Z,28.30
2019-04-21T17:53:40.242Z,28.30
2019-04-21T17:56:24.454Z,27.90
2019-04-21T17:59:01.380Z,28.50
2019-04-21T18:01:25.352Z,27.70
2019-04-21T18:04:06.227Z,27.80
2019-04-21T18:06:35.223Z,26.37
2019-04-21T18:09:16.866Z,26.87
2019-04-21T18:11:42.954Z,27.50
2019-04-21T18:13:51.418Z,28.90
2019-04-21T18:16:29.092Z,27.80
2019-04-21T18:18:55.070Z,28.53
2019-04-21T18:21:32.419Z,28.10
2019-04-21T18:24:10.704Z,28.00
2019-04-21T18:26:41.740Z,27.40
2019-04-21T18:29:05.651Z,27.77
2019-04-21T18:31:42.710Z,27.37
2019-04-21T18:34:30.562Z,26.67
2019-04-21T18:37:08.074Z,27.30
2019-04-21T18:40:03.744Z,27.77
2019-04-21T18:42:46.412Z,29.90
2019-04-21T18:48:17.220Z,28.00
2019-04-21T18:50:57.144Z,27.50
2019-04-21T18:53:41.623Z,28.93
2019-04-21T18:56:04.927Z,27.10
2019-04-21T18:58:28.798Z,27.17
2019-04-21T19:01:05.898Z,27.77
2019-04-21T19:03:37.270Z,27.20
2019-04-21T19:06:08.790Z,27.63
2019-04-21T19:08:53.641Z,27.80
2019-04-21T19:11:25.465Z,26.60
2019-04-21T19:14:30.391Z,27.07
2019-04-21T19:16:49.434Z,27.47
2019-04-21T19:21:50.556Z,28.40
2019-04-21T19:26:52.347Z,28.90
2019-04-21T19:29:26.231Z,28.80
2019-04-21T19:31:49.303Z,27.20
2019-04-21T19:34:10.316Z,27.90
2019-04-21T19:36:34.405Z,28.33
2019-04-21T19:39:12.802Z,30.80
2019-04-21T19:41:51.544Z,27.83
2019-04-21T19:44:26.234Z,29.43
2019-04-21T19:46:55.734Z,27.73
2019-04-21T19:49:36.475Z,27.67
2019-04-21T19:51:50.402Z,26.80
2019-04-21T19:54:22.125Z,28.10
2019-04-21T19:56:41.125Z,27.70
2019-04-21T19:59:11.896Z,28.50
2019-04-21T20:01:41.427Z,27.53
2019-04-21T20:04:10.647Z,27.50
2019-04-21T20:06:52.184Z,28.57
2019-04-21T20:09:28.330Z,30.23
2019-04-21T20:11:55.046Z,28.87
2019-04-21T20:14:46.637Z,29.20
2019-04-21T20:16:57.765Z,27.70
2019-04-21T20:19:15.723Z,28.03
2019-04-21T20:21:45.155Z,27.20
2019-04-21T20:24:19.856Z,28.93
2019-04-21T20:26:55.669Z,28.07
2019-04-21T20:29:37.492Z,28.00
2019-04-21T20:32:14.726Z,26.67
2019-04-21T20:34:38.814Z,28.07
2019-04-21T20:37:09.583Z,29.20
2019-04-21T20:39:23.399Z,28.00
2019-04-21T20:42:06.535Z,28.83
2019-04-21T20:44:36.901Z,34.53
2019-04-21T20:47:03.914Z,30.30
2019-04-21T20:49:34.037Z,29.10
2019-04-21T20:54:44.040Z,28.77
2019-04-21T20:57:11.512Z,29.60
2019-04-21T20:59:36.671Z,29.70
2019-04-21T21:02:11.993Z,30.90
2019-04-21T21:04:35.234Z,31.50
2019-04-21T21:07:27.986Z,31.23
2019-04-21T21:09:52.176Z,28.00
2019-04-21T21:12:34.513Z,31.03
2019-04-21T21:14:47.382Z,31.47
2019-04-21T21:17:37.146Z,30.70
2019-04-21T21:19:53.622Z,29.13
2019-04-21T21:22:14.461Z,31.47
2019-04-21T21:24:50.493Z,29.53
2019-04-21T21:27:19.506Z,30.23
2019-04-21T21:29:50.238Z,31.87
2019-04-21T21:32:29.170Z,30.10
2019-04-21T21:35:01.301Z,30.20
2019-04-21T21:37:32.304Z,33.90
2019-04-21T21:40:08.224Z,33.83
2019-04-21T21:42:11.818Z,34.27
2019-04-21T21:44:49.559Z,36.37
2019-04-21T21:47:24.179Z,34.90
2019-04-21T21:49:55.447Z,37.13
2019-04-21T21:52:25.917Z,35.43
2019-04-21T21:54:47.311Z,40.57
2019-04-21T21:57:16.796Z,40.23
2019-04-21T21:59:47.253Z,37.97
2019-04-21T22:02:26.456Z,40.37
2019-04-21T22:04:56.904Z,41.83
2019-04-21T22:07:20.454Z,35.23
2019-04-21T22:09:50.361Z,36.33
2019-04-21T22:12:20.117Z,32.67
2019-04-21T22:14:53.421Z,31.33
2019-04-21T22:17:34.647Z,32.00
2019-04-21T22:20:09.130Z,31.90
2019-04-21T22:22:31.283Z,31.40
2019-04-21T22:25:02.764Z,31.60
2019-04-21T22:27:23.385Z,29.93
2019-04-21T22:29:57.158Z,31.77
2019-04-21T22:32:27.480Z,30.53
2019-04-21T22:34:58.326Z,30.33
2019-04-21T22:37:38.025Z,30.57
2019-04-21T22:40:09.625Z,28.50
2019-04-21T22:42:33.202Z,29.13
2019-04-21T22:45:00.637Z,28.57
2019-04-21T22:47:33.936Z,29.50
2019-04-21T22:50:00.677Z,30.63
2019-04-21T22:52:30.475Z,29.90
2019-04-21T22:55:08.226Z,29.97
2019-04-21T22:57:39.116Z,29.77
2019-04-21T23:00:07.115Z,28.57
2019-04-21T23:02:35.334Z,31.70
2019-04-21T23:05:05.974Z,29.77
2019-04-21T23:07:45.488Z,29.30
2019-04-21T23:10:05.770Z,31.50
2019-04-21T23:12:38.914Z,31.60
2019-04-21T23:15:13.427Z,29.57
2019-04-21T23:17:55.285Z,31.10
2019-04-21T23:20:26.587Z,29.50
2019-04-21T23:23:09.887Z,30.93
2019-04-21T23:25:26.499Z,29.60
2019-04-21T23:27:56.244Z,29.87
2019-04-21T23:30:39.063Z,30.43
2019-04-21T23:32:52.644Z,27.77
2019-04-21T23:35:19.641Z,29.20
2019-04-21T23:37:52.008Z,28.30
2019-04-21T23:40:18.138Z,31.20
2019-04-21T23:42:45.843Z,28.90
2019-04-21T23:45:18.393Z,28.20
2019-04-21T23:47:57.838Z,29.20
2019-04-21T23:50:31.401Z,29.93
2019-04-21T23:52:49.677Z,30.73
2019-04-21T23:55:19.061Z,29.27
2019-04-21T23:57:50.059Z,29.17
